KSNS

Salinas Municipal Airport

Salinas, California, USA
KSNS 181739Z 1818/1918 34005KT P6SM OVC016 FM182100 29015KT P6SM FEW017 FM190300 27010KT P6SM OVC012 FM190700 27007KT P6SM OVC010 FM191745 28009KT P6SM SCT019
Issued Valid From Valid To
Sep-18 @ 17:39 UTC
(24 minutes ago)
Sep-18 @ 18:00 UTC
(3 minutes ago)
Sep-19 @ 18:00 UTC
(in 24 hours)
Sep-18 @ 18:00 to Sep-18 @ 21:00
KSNS 181739Z 1818/1918 34005KT P6SM OVC016
Wind Visibility Clouds
340° at 5 knots Greater than 6 miles
  • Overcast at 1,600' AGL
From Sep-18 @ 21:00 to Sep-19 @ 03:00
FM182100 29015KT P6SM FEW017
Wind Visibility Clouds
290° at 15 knots Greater than 6 miles
  • Few at 1,700' AGL
From Sep-19 @ 03:00 to Sep-19 @ 07:00
FM190300 27010KT P6SM OVC012
Wind Visibility Clouds
270° at 10 knots Greater than 6 miles
  • Overcast at 1,200' AGL
From Sep-19 @ 07:00 to Sep-19 @ 17:45
FM190700 27007KT P6SM OVC010
Wind Visibility Clouds
270° at 7 knots Greater than 6 miles
  • Overcast at 1,000' AGL
From Sep-19 @ 17:45 to Sep-19 @ 18:00
FM191745 28009KT P6SM SCT019
Wind Visibility Clouds
280° at 9 knots Greater than 6 miles
  • Scattered at 1,900' AGL
KSNS 181739Z 1818/1918 34005KT P6SM OVC016 FM182100 29015KT P6SM FEW017 FM190300 27010KT P6SM OVC012 FM190700 27007KT P6SM OVC010 FM191745 28009KT P6SM SCT019
Issued Sep-18 @ 17:39 UTC
(24 minutes ago)
Valid From Sep-18 @ 18:00 UTC
(3 minutes ago)
Valid To Sep-19 @ 18:00 UTC
(in 24 hours)
Sep-18 @ 18:00 - Sep-18 @ 21:00
Wind Visibility
340° at 5 knots Greater than 6 miles
Clouds
  • Overcast at 1,600' AGL
From Sep-18 @ 21:00 - Sep-19 @ 03:00
Wind Visibility
290° at 15 knots Greater than 6 miles
Clouds
  • Few at 1,700' AGL
From Sep-19 @ 03:00 - Sep-19 @ 07:00
Wind Visibility
270° at 10 knots Greater than 6 miles
Clouds
  • Overcast at 1,200' AGL
From Sep-19 @ 07:00 - Sep-19 @ 17:45
Wind Visibility
270° at 7 knots Greater than 6 miles
Clouds
  • Overcast at 1,000' AGL
From Sep-19 @ 17:45 - Sep-19 @ 18:00
Wind Visibility
280° at 9 knots Greater than 6 miles
Clouds
  • Scattered at 1,900' AGL